createdAt,value
2019-04-07T00:00:06.173Z,22.97
2019-04-07T00:02:34.615Z,22.60
2019-04-07T00:05:10.973Z,23.30
2019-04-07T00:07:33.466Z,23.93
2019-04-07T00:10:01.894Z,25.97
2019-04-07T00:12:30.998Z,28.53
2019-04-07T00:14:59.518Z,31.03
2019-04-07T00:17:28.572Z,26.10
2019-04-07T00:19:58.010Z,23.73
2019-04-07T00:22:26.438Z,23.63
2019-04-07T00:24:54.857Z,22.13
2019-04-07T00:27:23.034Z,21.07
2019-04-07T00:29:51.144Z,22.87
2019-04-07T00:32:19.237Z,23.60
2019-04-07T00:34:47.333Z,26.77
2019-04-07T00:37:15.695Z,22.60
2019-04-07T00:39:44.233Z,22.70
2019-04-07T00:42:12.692Z,27.57
2019-04-07T00:44:40.849Z,27.10
2019-04-07T00:47:09.424Z,26.93
2019-04-07T00:49:37.977Z,25.40
2019-04-07T00:52:08.356Z,26.40
2019-04-07T00:54:37.037Z,26.13
2019-04-07T00:57:05.560Z,25.53
2019-04-07T00:59:33.926Z,25.73
2019-04-07T01:02:02.563Z,26.27
2019-04-07T01:04:30.807Z,28.23
2019-04-07T01:06:59.243Z,25.57
2019-04-07T01:09:27.724Z,26.73
2019-04-07T01:11:55.857Z,25.83
2019-04-07T01:14:24.768Z,24.70
2019-04-07T01:16:53.007Z,24.70
2019-04-07T01:19:21.145Z,24.13
2019-04-07T01:21:49.922Z,23.40
2019-04-07T01:24:18.742Z,24.03
2019-04-07T01:26:47.213Z,23.57
2019-04-07T01:29:15.725Z,23.30
2019-04-07T01:31:44.405Z,24.57
2019-04-07T01:34:13.361Z,24.80
2019-04-07T01:36:42.883Z,24.53
2019-04-07T01:39:12.049Z,26.93
2019-04-07T01:41:41.804Z,29.27
2019-04-07T01:44:18.083Z,31.50
2019-04-07T01:47:04.732Z,32.17
2019-04-07T01:49:40.164Z,26.73
2019-04-07T01:52:13.021Z,27.40
2019-04-07T01:54:43.492Z,26.33
2019-04-07T01:57:26.217Z,25.93
2019-04-07T02:00:02.980Z,24.13
2019-04-07T02:02:35.597Z,25.57
2019-04-07T02:05:14.382Z,29.33
2019-04-07T02:07:44.585Z,24.47
2019-04-07T02:10:29.629Z,22.30
2019-04-07T02:12:59.371Z,25.10
2019-04-07T02:15:29.343Z,25.37
2019-04-07T02:17:59.343Z,27.37
2019-04-07T02:20:42.537Z,26.37
2019-04-07T02:23:12.796Z,27.33
2019-04-07T02:25:42.952Z,28.37
2019-04-07T02:28:25.437Z,28.87
2019-04-07T02:31:11.098Z,28.13
2019-04-07T02:33:44.300Z,30.10
2019-04-07T02:36:22.700Z,29.97
2019-04-07T02:38:49.860Z,30.50
2019-04-07T02:41:22.491Z,29.00
2019-04-07T02:44:04.901Z,28.63
2019-04-07T02:46:44.105Z,27.30
2019-04-07T02:49:19.995Z,26.73
2019-04-07T02:51:58.713Z,27.37
2019-04-07T02:54:44.775Z,26.20
2019-04-07T03:00:18.372Z,23.87
2019-04-07T03:05:43.545Z,25.30
2019-04-07T03:08:17.296Z,25.77
2019-04-07T03:10:53.560Z,27.93
2019-04-07T03:13:26.549Z,25.87
2019-04-07T03:16:00.502Z,25.47
2019-04-07T03:18:40.103Z,25.77
2019-04-07T03:21:10.195Z,25.57
2019-04-07T03:23:40.328Z,23.20
2019-04-07T03:26:26.688Z,23.70
2019-04-07T03:29:13.989Z,23.17
2019-04-07T03:34:42.107Z,22.87
2019-04-07T03:37:36.413Z,21.87
2019-04-07T03:40:18.577Z,27.33
2019-04-07T03:42:55.182Z,26.37
2019-04-07T03:45:41.793Z,25.53
2019-04-07T03:48:15.637Z,24.23
2019-04-07T03:50:51.180Z,24.27
2019-04-07T03:53:21.173Z,24.47
2019-04-07T03:55:53.570Z,24.67
2019-04-07T03:58:29.889Z,24.83
2019-04-07T04:01:05.242Z,24.57
2019-04-07T04:03:52.065Z,23.83
2019-04-07T04:06:30.451Z,24.57
2019-04-07T04:09:17.417Z,25.27
2019-04-07T04:11:56.876Z,26.67
2019-04-07T04:14:29.797Z,26.97
2019-04-07T04:16:58.006Z,27.00
2019-04-07T04:19:27.526Z,24.77
2019-04-07T04:21:56.910Z,27.53
2019-04-07T04:24:25.022Z,26.37
2019-04-07T04:26:53.784Z,25.97
2019-04-07T04:29:23.157Z,26.03
2019-04-07T04:31:52.836Z,25.73
2019-04-07T04:34:21.588Z,25.30
2019-04-07T04:36:50.260Z,24.77
2019-04-07T04:39:20.289Z,26.90
2019-04-07T04:41:49.192Z,26.13
2019-04-07T04:44:36.772Z,30.97
2019-04-07T04:47:04.942Z,29.97
2019-04-07T04:49:33.228Z,32.10
2019-04-07T04:52:01.455Z,30.27
2019-04-07T04:54:29.538Z,30.77
2019-04-07T04:56:57.629Z,28.50
2019-04-07T04:59:25.820Z,29.10
2019-04-07T05:01:53.914Z,29.43
2019-04-07T05:04:22.891Z,31.40
2019-04-07T05:06:51.536Z,30.83
2019-04-07T05:09:20.030Z,30.80
2019-04-07T05:11:48.613Z,31.53
2019-04-07T05:14:16.833Z,30.17
2019-04-07T05:16:44.948Z,30.63
2019-04-07T05:19:13.026Z,31.47
2019-04-07T05:21:41.543Z,32.37
2019-04-07T05:24:10.235Z,31.00
2019-04-07T05:26:38.860Z,28.87
2019-04-07T05:29:07.064Z,28.23
2019-04-07T05:31:35.924Z,27.80
2019-04-07T05:34:04.461Z,25.97
2019-04-07T05:36:32.567Z,27.00
2019-04-07T05:39:00.979Z,26.97
2019-04-07T05:41:29.641Z,27.93
2019-04-07T05:43:58.053Z,27.07
2019-04-07T05:46:28.106Z,28.63
2019-04-07T05:48:56.797Z,28.33
2019-04-07T05:51:25.227Z,27.17
2019-04-07T05:53:53.906Z,26.67
2019-04-07T05:56:25.982Z,25.53
2019-04-07T05:58:52.764Z,25.43
2019-04-07T06:01:23.359Z,24.87
2019-04-07T06:03:52.074Z,24.23
2019-04-07T06:06:20.884Z,26.83
2019-04-07T06:08:50.638Z,25.57
2019-04-07T06:11:19.418Z,24.57
2019-04-07T06:13:48.686Z,25.47
2019-04-07T06:16:19.946Z,24.03
2019-04-07T06:18:47.748Z,27.70
2019-04-07T06:21:17.264Z,26.20
2019-04-07T06:23:45.924Z,26.90
2019-04-07T06:26:15.067Z,27.47
2019-04-07T06:28:44.451Z,26.90
2019-04-07T06:31:14.050Z,27.97
2019-04-07T06:33:43.000Z,28.07
2019-04-07T06:36:11.614Z,28.10
2019-04-07T06:38:43.266Z,27.87
2019-04-07T06:41:10.577Z,27.60
2019-04-07T06:43:40.162Z,28.10
2019-04-07T06:46:10.632Z,27.53
2019-04-07T06:48:41.502Z,26.00
2019-04-07T06:51:15.135Z,29.83
2019-04-07T06:53:51.446Z,25.50
2019-04-07T06:56:24.518Z,23.87
2019-04-07T06:58:58.135Z,26.47
2019-04-07T07:01:44.922Z,26.77
2019-04-07T07:04:15.644Z,24.90
2019-04-07T07:07:01.056Z,29.50
2019-04-07T07:09:34.964Z,28.67
2019-04-07T07:12:20.630Z,29.97
2019-04-07T07:14:51.988Z,29.47
2019-04-07T07:17:31.170Z,29.00
2019-04-07T07:20:10.251Z,29.57
2019-04-07T07:22:41.766Z,29.90
2019-04-07T07:25:12.143Z,28.43
2019-04-07T07:27:41.741Z,28.23
2019-04-07T07:30:11.033Z,26.77
2019-04-07T07:32:39.921Z,26.57
2019-04-07T07:35:12.586Z,24.97
2019-04-07T07:37:38.785Z,26.23
2019-04-07T07:40:09.793Z,25.90
2019-04-07T07:42:38.225Z,25.47
2019-04-07T07:45:11.834Z,25.97
2019-04-07T07:47:38.604Z,25.50
2019-04-07T07:50:07.883Z,26.83
2019-04-07T07:52:37.686Z,26.87
2019-04-07T07:55:06.560Z,25.30
2019-04-07T07:57:35.558Z,26.63
2019-04-07T08:00:07.200Z,26.43
2019-04-07T08:02:36.462Z,28.20
2019-04-07T08:05:07.167Z,28.60
2019-04-07T08:07:35.931Z,28.20
2019-04-07T08:10:07.454Z,26.77
2019-04-07T08:12:35.930Z,27.43
2019-04-07T08:15:07.082Z,28.33
2019-04-07T08:17:36.573Z,27.50
2019-04-07T08:20:06.672Z,27.83
2019-04-07T08:22:41.350Z,27.70
2019-04-07T08:25:05.325Z,28.80
2019-04-07T08:27:33.488Z,26.50
2019-04-07T08:30:02.627Z,28.03
2019-04-07T08:32:32.393Z,28.23
2019-04-07T08:35:03.791Z,29.00
2019-04-07T08:37:31.199Z,29.07
2019-04-07T08:39:59.476Z,30.37
2019-04-07T08:42:27.939Z,30.33
2019-04-07T08:44:58.610Z,29.67
2019-04-07T08:47:26.228Z,30.03
2019-04-07T08:49:56.903Z,30.37
2019-04-07T08:52:24.798Z,29.17
2019-04-07T08:54:53.590Z,27.43
2019-04-07T08:57:22.530Z,25.73
2019-04-07T09:00:16.194Z,25.50
2019-04-07T09:02:42.719Z,26.13
2019-04-07T09:05:11.708Z,24.93
2019-04-07T09:07:40.063Z,23.83
2019-04-07T09:10:10.486Z,23.90
2019-04-07T09:12:39.253Z,23.57
2019-04-07T09:15:11.838Z,22.53
2019-04-07T09:17:46.631Z,23.57
2019-04-07T09:20:15.456Z,22.53
2019-04-07T09:22:45.185Z,21.87
2019-04-07T09:25:19.278Z,21.23
2019-04-07T09:27:50.337Z,22.30
2019-04-07T09:30:24.029Z,22.37
2019-04-07T09:32:56.807Z,21.13
2019-04-07T09:35:36.238Z,21.63
2019-04-07T09:38:24.848Z,21.53
2019-04-07T09:40:57.238Z,21.13
2019-04-07T09:43:43.914Z,20.70
2019-04-07T09:46:26.460Z,20.83
2019-04-07T09:49:03.354Z,21.37
2019-04-07T09:51:42.886Z,19.47
2019-04-07T09:54:13.327Z,16.87
2019-04-07T09:56:52.254Z,19.27
2019-04-07T09:59:25.083Z,19.30
2019-04-07T10:01:59.487Z,20.93
2019-04-07T10:04:45.872Z,20.23
2019-04-07T10:07:25.142Z,20.03
2019-04-07T10:10:14.510Z,19.27
2019-04-07T10:13:00.669Z,20.10
2019-04-07T10:15:31.626Z,18.93
2019-04-07T10:18:02.094Z,20.13
2019-04-07T10:20:35.192Z,20.13
2019-04-07T10:23:08.333Z,21.03
2019-04-07T10:25:50.783Z,21.30
2019-04-07T10:28:24.402Z,20.83
2019-04-07T10:31:11.336Z,19.30
2019-04-07T10:33:58.309Z,19.87
2019-04-07T10:36:31.893Z,20.03
2019-04-07T10:39:14.258Z,19.80
2019-04-07T10:41:50.752Z,18.70
2019-04-07T10:44:37.807Z,18.67
2019-04-07T10:47:10.733Z,18.60
2019-04-07T10:49:59.290Z,19.10
2019-04-07T10:52:28.201Z,18.77
2019-04-07T10:54:58.378Z,18.73
2019-04-07T10:57:37.856Z,19.27
2019-04-07T11:00:26.490Z,19.60
2019-04-07T11:03:02.927Z,18.23
2019-04-07T11:05:33.205Z,17.87
2019-04-07T11:08:11.792Z,17.23
2019-04-07T11:10:45.201Z,14.83
2019-04-07T11:13:18.582Z,15.97
2019-04-07T11:15:55.184Z,14.97
2019-04-07T11:18:34.777Z,15.90
2019-04-07T11:21:07.744Z,14.67
2019-04-07T11:23:53.274Z,15.50
2019-04-07T11:26:23.646Z,17.37
2019-04-07T11:28:53.787Z,17.13
2019-04-07T11:31:27.674Z,17.07
2019-04-07T11:33:58.755Z,15.93
2019-04-07T11:36:38.416Z,13.07
2019-04-07T11:39:11.958Z,12.80
2019-04-07T11:41:42.375Z,14.00
2019-04-07T11:44:12.813Z,14.37
2019-04-07T11:46:46.424Z,14.63
2019-04-07T11:49:16.572Z,15.50
2019-04-07T11:51:49.706Z,14.80
2019-04-07T11:54:19.844Z,13.03
2019-04-07T11:56:55.689Z,13.57
2019-04-07T11:59:31.717Z,12.50
2019-04-07T12:02:06.849Z,12.57
2019-04-07T12:04:53.431Z,11.17
2019-04-07T12:07:40.263Z,10.37
2019-04-07T12:10:27.251Z,10.60
2019-04-07T12:12:57.637Z,11.63
2019-04-07T12:15:30.893Z,10.47
2019-04-07T12:18:14.934Z,11.07
2019-04-07T12:21:01.129Z,10.87
2019-04-07T12:23:35.733Z,8.97
2019-04-07T12:26:20.730Z,9.77
2019-04-07T12:29:06.915Z,9.23
2019-04-07T12:31:40.408Z,8.70
2019-04-07T12:34:26.515Z,8.67
2019-04-07T12:37:06.065Z,10.03
2019-04-07T12:39:35.058Z,9.50
2019-04-07T12:42:08.797Z,9.13
2019-04-07T12:44:41.825Z,9.60
2019-04-07T12:47:12.400Z,9.33
2019-04-07T12:49:51.961Z,8.97
2019-04-07T12:52:26.175Z,9.23
2019-04-07T12:55:06.968Z,9.10
2019-04-07T12:57:46.004Z,9.03
2019-04-07T13:00:25.815Z,8.77
2019-04-07T13:03:01.751Z,7.67
2019-04-07T13:05:34.680Z,7.43
2019-04-07T13:08:10.812Z,8.03
2019-04-07T13:10:41.713Z,7.40
2019-04-07T13:13:12.332Z,9.00
2019-04-07T13:15:54.193Z,9.90
2019-04-07T13:18:27.754Z,9.90
2019-04-07T13:21:02.225Z,9.83
2019-04-07T13:23:38.559Z,9.40
2019-04-07T13:26:14.247Z,8.30
2019-04-07T13:28:44.551Z,9.03
2019-04-07T13:31:31.869Z,8.97
2019-04-07T13:34:18.055Z,8.70
2019-04-07T13:36:56.262Z,9.17
2019-04-07T13:39:26.324Z,8.10
2019-04-07T13:41:56.923Z,9.03
2019-04-07T13:44:28.305Z,9.67
2019-04-07T13:47:01.870Z,10.00
2019-04-07T13:49:47.216Z,9.60
2019-04-07T13:52:34.419Z,9.30
2019-04-07T13:55:07.486Z,9.70
2019-04-07T13:57:54.919Z,9.10
2019-04-07T14:00:23.234Z,9.13
2019-04-07T14:03:10.198Z,9.73
2019-04-07T14:05:56.743Z,10.03
2019-04-07T14:08:41.652Z,9.50
2019-04-07T14:11:28.486Z,10.53
2019-04-07T14:14:04.634Z,10.10
2019-04-07T14:16:50.794Z,10.23
2019-04-07T14:19:24.404Z,10.93
2019-04-07T14:22:25.652Z,10.07
2019-04-07T14:24:59.080Z,9.83
2019-04-07T14:27:29.773Z,10.87
2019-04-07T14:30:00.359Z,10.80
2019-04-07T14:32:49.414Z,10.43
2019-04-07T14:35:37.008Z,10.43
2019-04-07T14:38:09.960Z,10.00
2019-04-07T14:40:45.959Z,9.70
2019-04-07T14:43:17.630Z,9.93
2019-04-07T14:45:59.793Z,10.47
2019-04-07T14:48:35.878Z,9.97
2019-04-07T14:51:11.665Z,10.23
2019-04-07T14:53:57.244Z,10.47
2019-04-07T14:56:37.467Z,9.80
2019-04-07T14:59:08.124Z,10.60
2019-04-07T15:01:39.561Z,10.20
2019-04-07T15:04:08.510Z,9.23
2019-04-07T15:06:36.938Z,10.40
2019-04-07T15:09:13.595Z,10.73
2019-04-07T15:11:43.411Z,10.90
2019-04-07T15:14:12.428Z,14.27
2019-04-07T15:16:41.270Z,10.87
2019-04-07T15:19:09.614Z,12.13
2019-04-07T15:21:38.177Z,12.67
2019-04-07T15:24:08.450Z,14.00
2019-04-07T15:26:37.858Z,12.73
2019-04-07T15:29:09.237Z,13.43
2019-04-07T15:31:37.379Z,13.87
2019-04-07T15:34:08.554Z,12.87
2019-04-07T15:36:37.465Z,13.00
2019-04-07T15:39:08.557Z,14.60
2019-04-07T15:41:37.274Z,14.00
2019-04-07T15:44:09.032Z,12.53
2019-04-07T15:46:36.643Z,22.60
2019-04-07T15:49:06.706Z,12.30
2019-04-07T15:51:35.391Z,13.93
2019-04-07T15:54:04.692Z,12.47
2019-04-07T15:56:33.676Z,12.90
2019-04-07T15:59:02.400Z,15.13
2019-04-07T16:01:31.474Z,12.53
2019-04-07T16:04:00.033Z,18.27
2019-04-07T16:06:28.480Z,12.47
2019-04-07T16:08:58.842Z,19.47
2019-04-07T16:11:29.339Z,12.40
2019-04-07T16:16:28.457Z,8.63
2019-04-07T16:18:57.163Z,8.63
2019-04-07T16:21:27.720Z,8.83
2019-04-07T16:23:55.594Z,9.03
2019-04-07T16:26:24.051Z,9.43
2019-04-07T16:28:52.128Z,9.20
2019-04-07T16:31:24.248Z,10.20
2019-04-07T16:33:50.021Z,9.77
2019-04-07T16:36:19.611Z,10.83
2019-04-07T16:38:48.170Z,10.57
2019-04-07T16:41:35.937Z,10.50
2019-04-07T16:44:06.988Z,11.17
2019-04-07T16:46:34.165Z,11.07
2019-04-07T16:49:02.595Z,12.17
2019-04-07T16:51:32.775Z,12.13
2019-04-07T16:54:01.513Z,11.63
2019-04-07T16:56:29.910Z,12.13
2019-04-07T16:58:58.619Z,12.50
2019-04-07T17:01:27.572Z,13.97
2019-04-07T17:03:56.494Z,12.37
2019-04-07T17:06:26.790Z,13.17
2019-04-07T17:08:55.059Z,12.67
2019-04-07T17:11:23.659Z,11.90
2019-04-07T17:13:51.928Z,11.50
2019-04-07T17:16:22.920Z,12.07
2019-04-07T17:18:51.089Z,11.57
2019-04-07T17:21:20.677Z,13.50
2019-04-07T17:23:53.297Z,12.30
2019-04-07T17:26:21.676Z,12.93
2019-04-07T17:28:50.010Z,12.63
2019-04-07T17:31:18.807Z,12.43
2019-04-07T17:33:47.380Z,12.33
2019-04-07T17:36:18.675Z,13.47
2019-04-07T17:38:53.712Z,15.40
2019-04-07T17:41:21.794Z,14.77
2019-04-07T17:44:08.270Z,16.83
2019-04-07T17:46:44.199Z,21.17
2019-04-07T17:49:16.718Z,16.07
2019-04-07T17:51:49.953Z,16.87
2019-04-07T17:54:21.402Z,19.17
2019-04-07T17:56:51.401Z,14.80
2019-04-07T17:59:22.013Z,14.03
2019-04-07T18:01:56.546Z,12.93
2019-04-07T18:04:27.110Z,13.13
2019-04-07T18:07:13.506Z,13.70
2019-04-07T18:12:47.892Z,15.17
2019-04-07T18:15:36.258Z,15.07
2019-04-07T18:18:10.396Z,21.40
2019-04-07T18:20:41.377Z,17.40
2019-04-07T18:23:17.717Z,17.33
2019-04-07T18:25:48.193Z,31.60
2019-04-07T18:28:30.413Z,26.13
2019-04-07T18:31:17.828Z,14.93
2019-04-07T18:33:52.390Z,14.33
2019-04-07T18:36:38.491Z,13.73
2019-04-07T18:39:26.326Z,13.30
2019-04-07T18:42:01.096Z,13.63
2019-04-07T18:44:32.713Z,13.37
2019-04-07T18:47:20.921Z,13.50
2019-04-07T18:49:55.893Z,12.90
2019-04-07T18:52:38.911Z,14.43
2019-04-07T18:55:18.953Z,13.30
2019-04-07T18:57:52.064Z,14.40
2019-04-07T19:00:27.549Z,13.47
2019-04-07T19:03:00.292Z,12.27
2019-04-07T19:05:46.601Z,13.87
2019-04-07T19:08:17.901Z,13.10
2019-04-07T19:11:12.260Z,12.67
2019-04-07T19:14:07.401Z,12.93
2019-04-07T19:16:28.446Z,12.47
2019-04-07T19:18:58.630Z,13.23
2019-04-07T19:24:35.351Z,13.33
2019-04-07T19:27:13.518Z,12.67
2019-04-07T19:29:43.470Z,13.63
2019-04-07T19:32:17.976Z,13.53
2019-04-07T19:34:48.052Z,13.67
2019-04-07T19:37:22.872Z,12.07
2019-04-07T19:39:57.392Z,11.53
2019-04-07T19:42:48.208Z,10.10
2019-04-07T19:45:24.542Z,9.10
2019-04-07T19:48:11.486Z,10.10
2019-04-07T19:50:59.655Z,9.73
2019-04-07T19:53:36.647Z,9.13
2019-04-07T19:56:06.898Z,8.77
2019-04-07T19:58:38.634Z,9.60
2019-04-07T20:01:26.868Z,8.23
2019-04-07T20:04:10.987Z,8.73
2019-04-07T20:06:42.051Z,10.17
2019-04-07T20:09:12.714Z,10.37
2019-04-07T20:11:45.900Z,9.57
2019-04-07T20:14:28.460Z,9.77
2019-04-07T20:17:19.702Z,9.10
2019-04-07T20:20:08.794Z,9.03
2019-04-07T20:22:45.700Z,8.47
2019-04-07T20:25:24.564Z,7.70
2019-04-07T20:27:57.273Z,7.50
2019-04-07T20:30:46.907Z,7.57
2019-04-07T20:33:18.830Z,7.47
2019-04-07T20:36:05.077Z,7.77
2019-04-07T20:38:40.937Z,7.40
2019-04-07T20:41:13.615Z,6.80
2019-04-07T20:46:47.410Z,7.07
2019-04-07T20:49:34.632Z,6.13
2019-04-07T20:52:24.711Z,6.93
2019-04-07T20:54:58.137Z,6.43
2019-04-07T20:57:31.230Z,6.40
2019-04-07T21:00:18.566Z,6.20
2019-04-07T21:03:06.438Z,5.67
2019-04-07T21:05:35.649Z,5.43
2019-04-07T21:08:17.375Z,5.57
2019-04-07T21:10:59.463Z,6.07
2019-04-07T21:13:29.926Z,5.27
2019-04-07T21:16:03.577Z,5.17
2019-04-07T21:18:34.014Z,4.57
2019-04-07T21:21:04.573Z,4.50
2019-04-07T21:23:53.628Z,6.07
2019-04-07T21:26:27.768Z,4.83
2019-04-07T21:29:16.092Z,4.23
2019-04-07T21:32:03.549Z,4.00
2019-04-07T21:34:37.266Z,4.03
2019-04-07T21:37:10.664Z,3.87
2019-04-07T21:39:45.142Z,3.57
2019-04-07T21:45:02.367Z,3.70
2019-04-07T21:47:34.546Z,3.60
2019-04-07T21:50:07.571Z,3.40
2019-04-07T21:52:36.521Z,3.37
2019-04-07T21:55:24.064Z,3.10
2019-04-07T21:58:08.399Z,3.13
2019-04-07T22:00:55.107Z,2.97
2019-04-07T22:03:37.558Z,2.92
2019-04-07T22:06:07.689Z,2.80
2019-04-07T22:08:47.175Z,2.80
2019-04-07T22:11:15.635Z,2.43
2019-04-07T22:13:44.878Z,2.57
2019-04-07T22:16:14.232Z,2.40
2019-04-07T22:18:43.065Z,2.37
2019-04-07T22:21:11.779Z,2.10
2019-04-07T22:23:40.229Z,2.30
2019-04-07T22:26:12.610Z,2.17
2019-04-07T22:28:39.448Z,2.20
2019-04-07T22:31:10.936Z,2.33
2019-04-07T22:33:38.938Z,2.10
2019-04-07T22:36:11.249Z,2.00
2019-04-07T22:38:37.696Z,2.03
2019-04-07T22:41:08.074Z,2.47
2019-04-07T22:43:36.354Z,2.23
2019-04-07T22:46:14.751Z,2.50
2019-04-07T22:48:34.948Z,2.80
2019-04-07T22:51:04.125Z,2.23
2019-04-07T22:53:33.184Z,2.47
2019-04-07T22:56:04.750Z,2.73
2019-04-07T22:58:31.885Z,2.97
2019-04-07T23:01:00.710Z,2.77
2019-04-07T23:03:29.359Z,2.50
2019-04-07T23:05:57.949Z,2.57
2019-04-07T23:08:26.477Z,3.07
2019-04-07T23:10:55.751Z,2.70
2019-04-07T23:13:23.985Z,2.93
2019-04-07T23:15:53.274Z,2.40
2019-04-07T23:18:22.488Z,2.47
2019-04-07T23:20:51.531Z,2.87
2019-04-07T23:23:20.061Z,2.30
2019-04-07T23:25:48.207Z,2.47
2019-04-07T23:28:16.750Z,2.27
2019-04-07T23:30:45.214Z,2.30
2019-04-07T23:33:13.301Z,2.30
2019-04-07T23:35:41.717Z,2.13
2019-04-07T23:38:10.141Z,2.20
2019-04-07T23:40:38.561Z,2.20
2019-04-07T23:43:06.637Z,2.10
2019-04-07T23:45:35.737Z,2.40
2019-04-07T23:48:04.312Z,2.50
2019-04-07T23:50:33.537Z,1.80
2019-04-07T23:53:21.650Z,2.10
2019-04-07T23:55:50.061Z,2.10
2019-04-07T23:58:19.321Z,1.80
